sensor_id;sensor_type;location;lat;lon;timestamp;P1;durP1;ratioP1;P2;durP2;ratioP2
9140;SDS011;46330;50.822;7.126;2023-07-22T00:01:53;12.80;;;7.35;;
9140;SDS011;46330;50.822;7.126;2023-07-22T00:04:22;13.05;;;6.80;;
9140;SDS011;46330;50.822;7.126;2023-07-22T00:06:50;13.02;;;7.18;;
9140;SDS011;46330;50.822;7.126;2023-07-22T00:09:18;11.27;;;6.50;;
9140;SDS011;46330;50.822;7.126;2023-07-22T00:11:46;10.18;;;6.35;;
9140;SDS011;46330;50.822;7.126;2023-07-22T00:14:17;12.38;;;6.53;;
9140;SDS011;46330;50.822;7.126;2023-07-22T00:16:44;11.55;;;6.63;;
9140;SDS011;46330;50.822;7.126;2023-07-22T00:19:12;11.63;;;7.00;;
9140;SDS011;46330;50.822;7.126;2023-07-22T00:21:43;11.65;;;6.53;;
9140;SDS011;46330;50.822;7.126;2023-07-22T00:24:11;10.50;;;6.65;;
9140;SDS011;46330;50.822;7.126;2023-07-22T00:26:39;11.23;;;6.63;;
9140;SDS011;46330;50.822;7.126;2023-07-22T00:29:08;11.43;;;6.97;;
9140;SDS011;46330;50.822;7.126;2023-07-22T00:31:36;9.55;;;6.07;;
9140;SDS011;46330;50.822;7.126;2023-07-22T00:34:04;12.30;;;6.78;;
9140;SDS011;46330;50.822;7.126;2023-07-22T00:36:32;10.85;;;6.82;;
9140;SDS011;46330;50.822;7.126;2023-07-22T00:39:01;12.73;;;7.20;;
9140;SDS011;46330;50.822;7.126;2023-07-22T00:41:29;11.00;;;6.95;;
9140;SDS011;46330;50.822;7.126;2023-07-22T00:43:57;11.77;;;7.20;;
9140;SDS011;46330;50.822;7.126;2023-07-22T00:46:25;11.05;;;6.60;;
9140;SDS011;46330;50.822;7.126;2023-07-22T00:48:53;15.38;;;6.93;;
9140;SDS011;46330;50.822;7.126;2023-07-22T00:51:21;11.05;;;6.68;;
9140;SDS011;46330;50.822;7.126;2023-07-22T00:53:49;16.52;;;7.35;;
9140;SDS011;46330;50.822;7.126;2023-07-22T00:56:20;9.50;;;6.50;;
9140;SDS011;46330;50.822;7.126;2023-07-22T00:58:48;11.07;;;6.85;;
9140;SDS011;46330;50.822;7.126;2023-07-22T01:01:16;11.23;;;6.85;;
9140;SDS011;46330;50.822;7.126;2023-07-22T01:03:44;12.13;;;6.78;;
9140;SDS011;46330;50.822;7.126;2023-07-22T01:06:12;11.43;;;6.75;;
9140;SDS011;46330;50.822;7.126;2023-07-22T01:08:42;10.68;;;6.47;;
9140;SDS011;46330;50.822;7.126;2023-07-22T01:11:11;11.30;;;6.78;;
9140;SDS011;46330;50.822;7.126;2023-07-22T01:13:41;11.60;;;6.93;;
9140;SDS011;46330;50.822;7.126;2023-07-22T01:16:09;11.18;;;7.18;;
9140;SDS011;46330;50.822;7.126;2023-07-22T01:18:38;11.65;;;7.18;;
9140;SDS011;46330;50.822;7.126;2023-07-22T01:21:06;13.50;;;6.43;;
9140;SDS011;46330;50.822;7.126;2023-07-22T01:23:37;10.65;;;6.75;;
9140;SDS011;46330;50.822;7.126;2023-07-22T01:26:06;12.43;;;6.82;;
9140;SDS011;46330;50.822;7.126;2023-07-22T01:28:34;11.82;;;6.97;;
9140;SDS011;46330;50.822;7.126;2023-07-22T01:31:03;13.02;;;6.80;;
9140;SDS011;46330;50.822;7.126;2023-07-22T01:33:32;11.48;;;6.50;;
9140;SDS011;46330;50.822;7.126;2023-07-22T01:36:00;13.82;;;7.03;;
9140;SDS011;46330;50.822;7.126;2023-07-22T01:38:28;12.05;;;6.93;;
9140;SDS011;46330;50.822;7.126;2023-07-22T01:40:58;11.75;;;7.15;;
9140;SDS011;46330;50.822;7.126;2023-07-22T01:43:26;9.93;;;6.47;;
9140;SDS011;46330;50.822;7.126;2023-07-22T01:45:54;10.45;;;6.75;;
9140;SDS011;46330;50.822;7.126;2023-07-22T01:48:22;9.63;;;6.65;;
9140;SDS011;46330;50.822;7.126;2023-07-22T01:50:51;9.35;;;6.38;;
9140;SDS011;46330;50.822;7.126;2023-07-22T01:53:19;11.50;;;6.78;;
9140;SDS011;46330;50.822;7.126;2023-07-22T01:55:47;14.27;;;6.82;;
9140;SDS011;46330;50.822;7.126;2023-07-22T01:58:17;12.63;;;6.60;;
9140;SDS011;46330;50.822;7.126;2023-07-22T02:00:48;10.80;;;6.40;;
9140;SDS011;46330;50.822;7.126;2023-07-22T02:03:17;9.88;;;6.40;;
9140;SDS011;46330;50.822;7.126;2023-07-22T02:05:45;10.48;;;6.20;;
9140;SDS011;46330;50.822;7.126;2023-07-22T02:08:13;10.50;;;6.57;;
9140;SDS011;46330;50.822;7.126;2023-07-22T02:10:41;9.90;;;6.60;;
9140;SDS011;46330;50.822;7.126;2023-07-22T02:13:10;11.05;;;6.60;;
9140;SDS011;46330;50.822;7.126;2023-07-22T02:15:39;10.38;;;6.22;;
9140;SDS011;46330;50.822;7.126;2023-07-22T02:18:09;12.27;;;6.40;;
9140;SDS011;46330;50.822;7.126;2023-07-22T02:20:37;9.82;;;6.00;;
9140;SDS011;46330;50.822;7.126;2023-07-22T02:23:05;9.70;;;6.28;;
9140;SDS011;46330;50.822;7.126;2023-07-22T02:25:36;9.63;;;6.07;;
9140;SDS011;46330;50.822;7.126;2023-07-22T02:28:04;12.32;;;6.50;;
9140;SDS011;46330;50.822;7.126;2023-07-22T02:30:33;9.90;;;6.57;;
9140;SDS011;46330;50.822;7.126;2023-07-22T02:33:05;11.25;;;5.57;;
9140;SDS011;46330;50.822;7.126;2023-07-22T02:35:34;11.60;;;6.32;;
9140;SDS011;46330;50.822;7.126;2023-07-22T02:38:02;8.57;;;6.07;;
9140;SDS011;46330;50.822;7.126;2023-07-22T02:40:30;9.65;;;5.65;;
9140;SDS011;46330;50.822;7.126;2023-07-22T02:43:01;9.15;;;6.30;;
9140;SDS011;46330;50.822;7.126;2023-07-22T02:45:30;9.93;;;6.03;;
9140;SDS011;46330;50.822;7.126;2023-07-22T02:47:58;9.10;;;5.90;;
9140;SDS011;46330;50.822;7.126;2023-07-22T02:50:27;8.90;;;6.10;;
9140;SDS011;46330;50.822;7.126;2023-07-22T02:52:55;9.45;;;5.88;;
9140;SDS011;46330;50.822;7.126;2023-07-22T02:55:24;12.32;;;5.88;;
9140;SDS011;46330;50.822;7.126;2023-07-22T02:57:51;10.20;;;5.78;;
9140;SDS011;46330;50.822;7.126;2023-07-22T03:00:20;10.02;;;5.93;;
9140;SDS011;46330;50.822;7.126;2023-07-22T03:02:51;9.07;;;6.07;;
9140;SDS011;46330;50.822;7.126;2023-07-22T03:05:20;8.20;;;5.97;;
9140;SDS011;46330;50.822;7.126;2023-07-22T03:07:49;11.43;;;6.25;;
9140;SDS011;46330;50.822;7.126;2023-07-22T03:10:18;10.38;;;6.50;;
9140;SDS011;46330;50.822;7.126;2023-07-22T03:12:47;8.75;;;5.90;;
9140;SDS011;46330;50.822;7.126;2023-07-22T03:15:15;10.15;;;6.05;;
9140;SDS011;46330;50.822;7.126;2023-07-22T03:17:45;9.05;;;6.15;;
9140;SDS011;46330;50.822;7.126;2023-07-22T03:20:13;12.95;;;6.60;;
9140;SDS011;46330;50.822;7.126;2023-07-22T03:22:42;9.82;;;6.35;;
9140;SDS011;46330;50.822;7.126;2023-07-22T03:25:13;10.43;;;6.65;;
9140;SDS011;46330;50.822;7.126;2023-07-22T03:27:44;9.70;;;6.13;;
9140;SDS011;46330;50.822;7.126;2023-07-22T03:30:12;10.27;;;5.80;;
9140;SDS011;46330;50.822;7.126;2023-07-22T03:32:42;11.23;;;6.43;;
9140;SDS011;46330;50.822;7.126;2023-07-22T03:35:11;9.85;;;5.93;;
9140;SDS011;46330;50.822;7.126;2023-07-22T03:37:39;10.30;;;6.18;;
9140;SDS011;46330;50.822;7.126;2023-07-22T03:40:08;11.02;;;6.63;;
9140;SDS011;46330;50.822;7.126;2023-07-22T03:42:42;11.02;;;5.82;;
9140;SDS011;46330;50.822;7.126;2023-07-22T03:45:10;9.30;;;5.80;;
9140;SDS011;46330;50.822;7.126;2023-07-22T03:47:38;9.95;;;5.72;;
9140;SDS011;46330;50.822;7.126;2023-07-22T03:50:07;11.57;;;5.72;;
9140;SDS011;46330;50.822;7.126;2023-07-22T03:52:35;8.98;;;5.78;;
9140;SDS011;46330;50.822;7.126;2023-07-22T03:55:04;9.38;;;5.53;;
9140;SDS011;46330;50.822;7.126;2023-07-22T03:57:32;8.55;;;5.50;;
9140;SDS011;46330;50.822;7.126;2023-07-22T04:00:04;9.65;;;6.05;;
9140;SDS011;46330;50.822;7.126;2023-07-22T04:02:39;11.63;;;6.13;;
9140;SDS011;46330;50.822;7.126;2023-07-22T04:05:08;10.85;;;5.68;;
9140;SDS011;46330;50.822;7.126;2023-07-22T04:07:37;9.88;;;5.40;;
9140;SDS011;46330;50.822;7.126;2023-07-22T04:10:05;10.07;;;6.20;;
9140;SDS011;46330;50.822;7.126;2023-07-22T04:12:34;10.80;;;5.80;;
9140;SDS011;46330;50.822;7.126;2023-07-22T04:15:04;9.00;;;5.93;;
9140;SDS011;46330;50.822;7.126;2023-07-22T04:17:32;10.82;;;6.53;;
9140;SDS011;46330;50.822;7.126;2023-07-22T04:20:00;9.30;;;5.85;;
9140;SDS011;46330;50.822;7.126;2023-07-22T04:22:30;8.23;;;6.00;;
9140;SDS011;46330;50.822;7.126;2023-07-22T04:24:58;9.00;;;5.80;;
9140;SDS011;46330;50.822;7.126;2023-07-22T04:27:26;10.77;;;5.63;;
9140;SDS011;46330;50.822;7.126;2023-07-22T04:29:55;9.02;;;5.97;;
9140;SDS011;46330;50.822;7.126;2023-07-22T04:32:24;11.45;;;6.10;;
9140;SDS011;46330;50.822;7.126;2023-07-22T04:34:52;9.65;;;5.60;;
9140;SDS011;46330;50.822;7.126;2023-07-22T04:37:21;8.38;;;5.90;;
9140;SDS011;46330;50.822;7.126;2023-07-22T04:39:49;11.40;;;5.75;;
9140;SDS011;46330;50.822;7.126;2023-07-22T04:42:17;7.35;;;5.32;;
9140;SDS011;46330;50.822;7.126;2023-07-22T04:44:46;7.65;;;5.57;;
9140;SDS011;46330;50.822;7.126;2023-07-22T04:47:14;9.52;;;5.15;;
9140;SDS011;46330;50.822;7.126;2023-07-22T04:49:44;8.38;;;5.20;;
9140;SDS011;46330;50.822;7.126;2023-07-22T04:52:11;7.80;;;5.35;;
9140;SDS011;46330;50.822;7.126;2023-07-22T04:54:41;8.63;;;5.30;;
9140;SDS011;46330;50.822;7.126;2023-07-22T04:57:09;10.00;;;5.30;;
9140;SDS011;46330;50.822;7.126;2023-07-22T04:59:37;8.57;;;5.40;;
9140;SDS011;46330;50.822;7.126;2023-07-22T05:02:05;8.18;;;5.50;;
9140;SDS011;46330;50.822;7.126;2023-07-22T05:04:33;9.60;;;5.35;;
9140;SDS011;46330;50.822;7.126;2023-07-22T05:07:03;9.23;;;5.53;;
9140;SDS011;46330;50.822;7.126;2023-07-22T05:09:31;9.18;;;5.75;;
9140;SDS011;46330;50.822;7.126;2023-07-22T05:11:59;10.68;;;5.07;;
9140;SDS011;46330;50.822;7.126;2023-07-22T05:14:35;9.85;;;5.43;;
9140;SDS011;46330;50.822;7.126;2023-07-22T05:17:14;7.53;;;4.88;;
9140;SDS011;46330;50.822;7.126;2023-07-22T05:19:51;7.88;;;4.75;;
9140;SDS011;46330;50.822;7.126;2023-07-22T05:22:28;8.32;;;5.20;;
9140;SDS011;46330;50.822;7.126;2023-07-22T05:25:01;9.13;;;5.60;;
9140;SDS011;46330;50.822;7.126;2023-07-22T05:27:45;8.43;;;4.95;;
9140;SDS011;46330;50.822;7.126;2023-07-22T05:30:23;7.47;;;5.18;;
9140;SDS011;46330;50.822;7.126;2023-07-22T05:33:01;9.50;;;5.20;;
9140;SDS011;46330;50.822;7.126;2023-07-22T05:35:36;8.07;;;5.22;;
9140;SDS011;46330;50.822;7.126;2023-07-22T05:38:20;9.82;;;5.18;;
9140;SDS011;46330;50.822;7.126;2023-07-22T05:40:54;7.85;;;4.95;;
9140;SDS011;46330;50.822;7.126;2023-07-22T05:43:27;8.07;;;4.47;;
9140;SDS011;46330;50.822;7.126;2023-07-22T05:46:15;8.95;;;4.55;;
9140;SDS011;46330;50.822;7.126;2023-07-22T05:48:53;10.55;;;5.50;;
9140;SDS011;46330;50.822;7.126;2023-07-22T05:51:33;7.05;;;4.47;;
9140;SDS011;46330;50.822;7.126;2023-07-22T05:54:09;7.80;;;4.88;;
9140;SDS011;46330;50.822;7.126;2023-07-22T05:56:38;6.30;;;4.30;;
9140;SDS011;46330;50.822;7.126;2023-07-22T05:59:12;9.32;;;5.10;;
9140;SDS011;46330;50.822;7.126;2023-07-22T06:01:52;9.40;;;4.60;;
9140;SDS011;46330;50.822;7.126;2023-07-22T06:04:28;6.17;;;4.50;;
9140;SDS011;46330;50.822;7.126;2023-07-22T06:07:15;6.93;;;4.32;;
9140;SDS011;46330;50.822;7.126;2023-07-22T06:09:53;7.55;;;5.00;;
9140;SDS011;46330;50.822;7.126;2023-07-22T06:12:29;7.65;;;4.82;;
9140;SDS011;46330;50.822;7.126;2023-07-22T06:15:06;8.75;;;4.63;;
9140;SDS011;46330;50.822;7.126;2023-07-22T06:17:41;8.02;;;4.75;;
9140;SDS011;46330;50.822;7.126;2023-07-22T06:20:13;6.15;;;4.65;;
9140;SDS011;46330;50.822;7.126;2023-07-22T06:22:49;6.93;;;4.45;;
9140;SDS011;46330;50.822;7.126;2023-07-22T06:25:23;8.75;;;4.40;;
9140;SDS011;46330;50.822;7.126;2023-07-22T06:27:55;6.43;;;4.47;;
9140;SDS011;46330;50.822;7.126;2023-07-22T06:30:34;7.00;;;4.45;;
9140;SDS011;46330;50.822;7.126;2023-07-22T06:33:05;7.80;;;4.45;;
9140;SDS011;46330;50.822;7.126;2023-07-22T06:35:43;7.38;;;4.10;;
9140;SDS011;46330;50.822;7.126;2023-07-22T06:38:20;6.95;;;4.20;;
9140;SDS011;46330;50.822;7.126;2023-07-22T06:40:59;7.77;;;4.30;;
9140;SDS011;46330;50.822;7.126;2023-07-22T06:43:37;7.07;;;4.50;;
9140;SDS011;46330;50.822;7.126;2023-07-22T06:46:18;8.57;;;4.70;;
9140;SDS011;46330;50.822;7.126;2023-07-22T06:48:56;6.57;;;4.53;;
9140;SDS011;46330;50.822;7.126;2023-07-22T06:51:32;7.55;;;4.20;;
9140;SDS011;46330;50.822;7.126;2023-07-22T06:54:21;8.60;;;4.55;;
9140;SDS011;46330;50.822;7.126;2023-07-22T06:56:56;7.22;;;4.30;;
9140;SDS011;46330;50.822;7.126;2023-07-22T06:59:30;5.85;;;4.32;;
9140;SDS011;46330;50.822;7.126;2023-07-22T07:02:03;7.82;;;4.60;;
9140;SDS011;46330;50.822;7.126;2023-07-22T07:04:36;8.68;;;4.10;;
9140;SDS011;46330;50.822;7.126;2023-07-22T07:07:13;5.78;;;4.00;;
9140;SDS011;46330;50.822;7.126;2023-07-22T07:09:51;6.00;;;3.95;;
9140;SDS011;46330;50.822;7.126;2023-07-22T07:12:22;5.47;;;3.92;;
9140;SDS011;46330;50.822;7.126;2023-07-22T07:14:52;9.15;;;4.45;;
9140;SDS011;46330;50.822;7.126;2023-07-22T07:17:30;6.32;;;3.63;;
9140;SDS011;46330;50.822;7.126;2023-07-22T07:20:06;5.30;;;3.53;;
9140;SDS011;46330;50.822;7.126;2023-07-22T07:22:43;5.45;;;3.72;;
9140;SDS011;46330;50.822;7.126;2023-07-22T07:25:12;5.45;;;3.80;;
9140;SDS011;46330;50.822;7.126;2023-07-22T07:27:44;8.73;;;4.05;;
9140;SDS011;46330;50.822;7.126;2023-07-22T07:30:17;7.85;;;5.10;;
9140;SDS011;46330;50.822;7.126;2023-07-22T07:32:48;7.10;;;3.72;;
9140;SDS011;46330;50.822;7.126;2023-07-22T07:35:28;4.65;;;3.95;;
9140;SDS011;46330;50.822;7.126;2023-07-22T07:37:59;5.22;;;3.92;;
9140;SDS011;46330;50.822;7.126;2023-07-22T07:40:27;6.45;;;3.70;;
9140;SDS011;46330;50.822;7.126;2023-07-22T07:42:56;5.97;;;3.90;;
9140;SDS011;46330;50.822;7.126;2023-07-22T07:45:24;6.45;;;4.05;;
9140;SDS011;46330;50.822;7.126;2023-07-22T07:47:52;5.28;;;3.90;;
9140;SDS011;46330;50.822;7.126;2023-07-22T07:50:20;8.70;;;3.85;;
9140;SDS011;46330;50.822;7.126;2023-07-22T07:52:48;6.70;;;3.55;;
9140;SDS011;46330;50.822;7.126;2023-07-22T07:55:16;6.57;;;3.88;;
9140;SDS011;46330;50.822;7.126;2023-07-22T07:57:45;5.13;;;3.40;;
9140;SDS011;46330;50.822;7.126;2023-07-22T08:00:15;5.20;;;3.80;;
9140;SDS011;46330;50.822;7.126;2023-07-22T08:02:43;7.82;;;4.00;;
9140;SDS011;46330;50.822;7.126;2023-07-22T08:05:11;8.60;;;3.50;;
9140;SDS011;46330;50.822;7.126;2023-07-22T08:07:39;4.32;;;3.20;;
9140;SDS011;46330;50.822;7.126;2023-07-22T08:10:07;4.32;;;3.42;;
9140;SDS011;46330;50.822;7.126;2023-07-22T08:12:36;4.25;;;3.25;;
9140;SDS011;46330;50.822;7.126;2023-07-22T08:15:05;5.95;;;3.65;;
9140;SDS011;46330;50.822;7.126;2023-07-22T08:17:36;8.40;;;3.30;;
9140;SDS011;46330;50.822;7.126;2023-07-22T08:20:04;6.82;;;4.07;;
9140;SDS011;46330;50.822;7.126;2023-07-22T08:22:34;4.32;;;3.30;;
9140;SDS011;46330;50.822;7.126;2023-07-22T08:25:02;4.82;;;3.33;;
9140;SDS011;46330;50.822;7.126;2023-07-22T08:27:31;5.57;;;3.50;;
9140;SDS011;46330;50.822;7.126;2023-07-22T08:29:59;5.03;;;3.38;;
9140;SDS011;46330;50.822;7.126;2023-07-22T08:32:27;4.80;;;3.05;;
9140;SDS011;46330;50.822;7.126;2023-07-22T08:34:56;4.60;;;3.08;;
9140;SDS011;46330;50.822;7.126;2023-07-22T08:37:24;6.88;;;3.90;;
9140;SDS011;46330;50.822;7.126;2023-07-22T08:39:52;5.20;;;3.63;;
9140;SDS011;46330;50.822;7.126;2023-07-22T08:42:20;9.25;;;4.57;;
9140;SDS011;46330;50.822;7.126;2023-07-22T08:44:51;4.88;;;3.45;;
9140;SDS011;46330;50.822;7.126;2023-07-22T08:47:24;5.75;;;3.47;;
9140;SDS011;46330;50.822;7.126;2023-07-22T08:49:58;4.60;;;3.40;;
9140;SDS011;46330;50.822;7.126;2023-07-22T08:52:28;6.18;;;3.40;;
9140;SDS011;46330;50.822;7.126;2023-07-22T08:54:57;6.40;;;3.60;;
9140;SDS011;46330;50.822;7.126;2023-07-22T08:57:27;3.67;;;3.28;;
9140;SDS011;46330;50.822;7.126;2023-07-22T08:59:57;4.07;;;3.50;;
9140;SDS011;46330;50.822;7.126;2023-07-22T09:02:25;5.45;;;3.47;;
9140;SDS011;46330;50.822;7.126;2023-07-22T09:04:54;6.85;;;3.33;;
9140;SDS011;46330;50.822;7.126;2023-07-22T09:07:23;6.07;;;3.33;;
9140;SDS011;46330;50.822;7.126;2023-07-22T09:09:52;7.35;;;3.35;;
9140;SDS011;46330;50.822;7.126;2023-07-22T09:12:21;4.65;;;3.40;;
9140;SDS011;46330;50.822;7.126;2023-07-22T09:14:49;4.90;;;3.13;;
9140;SDS011;46330;50.822;7.126;2023-07-22T09:17:18;5.35;;;3.05;;
9140;SDS011;46330;50.822;7.126;2023-07-22T09:19:46;5.13;;;3.35;;
9140;SDS011;46330;50.822;7.126;2023-07-22T09:22:25;5.78;;;3.25;;
9140;SDS011;46330;50.822;7.126;2023-07-22T09:25:02;6.95;;;3.60;;
9140;SDS011;46330;50.822;7.126;2023-07-22T09:27:40;5.03;;;3.45;;
9140;SDS011;46330;50.822;7.126;2023-07-22T09:30:19;5.38;;;3.50;;
9140;SDS011;46330;50.822;7.126;2023-07-22T09:32:49;5.82;;;3.40;;
9140;SDS011;46330;50.822;7.126;2023-07-22T09:35:18;5.95;;;3.30;;
9140;SDS011;46330;50.822;7.126;2023-07-22T09:37:48;4.78;;;3.33;;
9140;SDS011;46330;50.822;7.126;2023-07-22T09:40:17;5.75;;;3.40;;
9140;SDS011;46330;50.822;7.126;2023-07-22T09:42:46;5.93;;;3.40;;
9140;SDS011;46330;50.822;7.126;2023-07-22T09:45:15;5.40;;;3.35;;
9140;SDS011;46330;50.822;7.126;2023-07-22T09:47:44;4.28;;;3.40;;
9140;SDS011;46330;50.822;7.126;2023-07-22T09:50:14;5.05;;;3.30;;
9140;SDS011;46330;50.822;7.126;2023-07-22T09:52:44;4.60;;;3.35;;
9140;SDS011;46330;50.822;7.126;2023-07-22T09:55:16;6.50;;;3.35;;
9140;SDS011;46330;50.822;7.126;2023-07-22T09:57:46;4.80;;;3.30;;
9140;SDS011;46330;50.822;7.126;2023-07-22T10:00:18;5.30;;;2.97;;
9140;SDS011;46330;50.822;7.126;2023-07-22T10:02:47;5.32;;;3.63;;
9140;SDS011;46330;50.822;7.126;2023-07-22T10:05:17;5.05;;;3.20;;
9140;SDS011;46330;50.822;7.126;2023-07-22T10:07:47;5.40;;;3.20;;
9140;SDS011;46330;50.822;7.126;2023-07-22T10:10:19;4.43;;;3.15;;
9140;SDS011;46330;50.822;7.126;2023-07-22T10:12:47;4.63;;;3.13;;
9140;SDS011;46330;50.822;7.126;2023-07-22T10:15:15;5.18;;;3.00;;
9140;SDS011;46330;50.822;7.126;2023-07-22T10:17:45;4.85;;;2.70;;
9140;SDS011;46330;50.822;7.126;2023-07-22T10:20:13;3.28;;;2.55;;
9140;SDS011;46330;50.822;7.126;2023-07-22T10:22:43;4.90;;;2.80;;
9140;SDS011;46330;50.822;7.126;2023-07-22T10:25:12;4.03;;;2.90;;
9140;SDS011;46330;50.822;7.126;2023-07-22T10:27:43;5.07;;;3.50;;
9140;SDS011;46330;50.822;7.126;2023-07-22T10:30:12;4.32;;;2.60;;
9140;SDS011;46330;50.822;7.126;2023-07-22T10:32:41;3.25;;;2.58;;
9140;SDS011;46330;50.822;7.126;2023-07-22T10:35:16;7.60;;;2.30;;
9140;SDS011;46330;50.822;7.126;2023-07-22T10:37:48;2.55;;;2.08;;
9140;SDS011;46330;50.822;7.126;2023-07-22T10:40:25;3.17;;;2.38;;
9140;SDS011;46330;50.822;7.126;2023-07-22T10:42:57;3.67;;;2.40;;
9140;SDS011;46330;50.822;7.126;2023-07-22T10:45:28;5.73;;;2.23;;
9140;SDS011;46330;50.822;7.126;2023-07-22T10:48:04;4.95;;;2.42;;
9140;SDS011;46330;50.822;7.126;2023-07-22T10:50:40;2.95;;;2.30;;
9140;SDS011;46330;50.822;7.126;2023-07-22T10:53:10;3.58;;;2.30;;
9140;SDS011;46330;50.822;7.126;2023-07-22T10:58:32;4.57;;;2.15;;
9140;SDS011;46330;50.822;7.126;2023-07-22T11:04:08;5.78;;;2.40;;
9140;SDS011;46330;50.822;7.126;2023-07-22T11:06:53;2.60;;;2.25;;
9140;SDS011;46330;50.822;7.126;2023-07-22T11:09:35;3.83;;;2.13;;
9140;SDS011;46330;50.822;7.126;2023-07-22T11:12:05;2.70;;;2.05;;
9140;SDS011;46330;50.822;7.126;2023-07-22T11:14:37;2.17;;;2.00;;
9140;SDS011;46330;50.822;7.126;2023-07-22T11:17:07;2.35;;;1.90;;
9140;SDS011;46330;50.822;7.126;2023-07-22T11:19:36;2.53;;;2.00;;
9140;SDS011;46330;50.822;7.126;2023-07-22T11:22:05;4.40;;;2.15;;
9140;SDS011;46330;50.822;7.126;2023-07-22T11:24:33;3.20;;;2.00;;
9140;SDS011;46330;50.822;7.126;2023-07-22T11:27:03;2.15;;;1.95;;
9140;SDS011;46330;50.822;7.126;2023-07-22T11:29:32;2.55;;;1.77;;
9140;SDS011;46330;50.822;7.126;2023-07-22T11:32:02;4.45;;;2.15;;
9140;SDS011;46330;50.822;7.126;2023-07-22T11:34:32;3.53;;;2.30;;
9140;SDS011;46330;50.822;7.126;2023-07-22T11:37:00;4.32;;;2.20;;
9140;SDS011;46330;50.822;7.126;2023-07-22T11:39:30;3.33;;;2.20;;
9140;SDS011;46330;50.822;7.126;2023-07-22T11:41:59;3.83;;;1.60;;
9140;SDS011;46330;50.822;7.126;2023-07-22T11:44:29;1.77;;;1.48;;
9140;SDS011;46330;50.822;7.126;2023-07-22T11:46:58;1.88;;;1.40;;
9140;SDS011;46330;50.822;7.126;2023-07-22T11:49:29;2.38;;;1.40;;
9140;SDS011;46330;50.822;7.126;2023-07-22T11:51:59;2.10;;;1.30;;
9140;SDS011;46330;50.822;7.126;2023-07-22T11:54:28;1.70;;;1.50;;
9140;SDS011;46330;50.822;7.126;2023-07-22T11:57:09;1.75;;;1.65;;
9140;SDS011;46330;50.822;7.126;2023-07-22T11:59:40;5.07;;;1.60;;
9140;SDS011;46330;50.822;7.126;2023-07-22T12:02:12;1.50;;;1.40;;
9140;SDS011;46330;50.822;7.126;2023-07-22T12:04:42;1.50;;;1.40;;
9140;SDS011;46330;50.822;7.126;2023-07-22T12:07:21;2.10;;;1.40;;
9140;SDS011;46330;50.822;7.126;2023-07-22T12:09:51;2.35;;;1.38;;
9140;SDS011;46330;50.822;7.126;2023-07-22T12:12:20;3.80;;;1.55;;
9140;SDS011;46330;50.822;7.126;2023-07-22T12:14:47;1.77;;;1.52;;
9140;SDS011;46330;50.822;7.126;2023-07-22T12:17:16;1.42;;;1.33;;
9140;SDS011;46330;50.822;7.126;2023-07-22T12:19:52;1.65;;;1.40;;
9140;SDS011;46330;50.822;7.126;2023-07-22T12:22:23;2.58;;;1.80;;
9140;SDS011;46330;50.822;7.126;2023-07-22T12:24:51;3.20;;;1.60;;
9140;SDS011;46330;50.822;7.126;2023-07-22T12:27:21;1.77;;;1.52;;
9140;SDS011;46330;50.822;7.126;2023-07-22T12:29:49;1.70;;;1.60;;
9140;SDS011;46330;50.822;7.126;2023-07-22T12:32:16;2.92;;;1.80;;
9140;SDS011;46330;50.822;7.126;2023-07-22T12:34:44;3.45;;;1.60;;
9140;SDS011;46330;50.822;7.126;2023-07-22T12:37:14;1.73;;;1.63;;
9140;SDS011;46330;50.822;7.126;2023-07-22T12:39:42;3.95;;;2.22;;
9140;SDS011;46330;50.822;7.126;2023-07-22T12:42:10;1.98;;;1.52;;
9140;SDS011;46330;50.822;7.126;2023-07-22T12:44:38;1.55;;;1.45;;
9140;SDS011;46330;50.822;7.126;2023-07-22T12:47:06;2.50;;;1.70;;
9140;SDS011;46330;50.822;7.126;2023-07-22T12:49:35;1.83;;;1.60;;
9140;SDS011;46330;50.822;7.126;2023-07-22T12:52:03;2.72;;;1.50;;
9140;SDS011;46330;50.822;7.126;2023-07-22T12:54:36;4.70;;;2.10;;
9140;SDS011;46330;50.822;7.126;2023-07-22T12:57:04;2.13;;;1.63;;
9140;SDS011;46330;50.822;7.126;2023-07-22T12:59:33;2.42;;;1.70;;
9140;SDS011;46330;50.822;7.126;2023-07-22T13:02:01;3.63;;;1.75;;
9140;SDS011;46330;50.822;7.126;2023-07-22T13:04:30;2.83;;;1.77;;
9140;SDS011;46330;50.822;7.126;2023-07-22T13:06:57;4.53;;;1.52;;
9140;SDS011;46330;50.822;7.126;2023-07-22T13:09:25;1.70;;;1.60;;
9140;SDS011;46330;50.822;7.126;2023-07-22T13:11:55;5.05;;;2.00;;
9140;SDS011;46330;50.822;7.126;2023-07-22T13:14:23;5.55;;;2.20;;
9140;SDS011;46330;50.822;7.126;2023-07-22T13:16:50;2.22;;;1.75;;
9140;SDS011;46330;50.822;7.126;2023-07-22T13:19:18;2.45;;;1.85;;
9140;SDS011;46330;50.822;7.126;2023-07-22T13:21:46;2.28;;;1.70;;
9140;SDS011;46330;50.822;7.126;2023-07-22T13:24:15;2.85;;;2.00;;
9140;SDS011;46330;50.822;7.126;2023-07-22T13:26:43;3.13;;;1.90;;
9140;SDS011;46330;50.822;7.126;2023-07-22T13:29:13;2.90;;;1.88;;
9140;SDS011;46330;50.822;7.126;2023-07-22T13:31:41;2.88;;;1.83;;
9140;SDS011;46330;50.822;7.126;2023-07-22T13:34:09;2.00;;;1.83;;
9140;SDS011;46330;50.822;7.126;2023-07-22T13:36:37;2.03;;;1.80;;
9140;SDS011;46330;50.822;7.126;2023-07-22T13:39:05;2.00;;;1.80;;
9140;SDS011;46330;50.822;7.126;2023-07-22T13:41:33;7.68;;;2.00;;
9140;SDS011;46330;50.822;7.126;2023-07-22T13:44:01;2.40;;;2.10;;
9140;SDS011;46330;50.822;7.126;2023-07-22T13:46:30;2.67;;;2.25;;
9140;SDS011;46330;50.822;7.126;2023-07-22T13:48:58;4.10;;;1.80;;
9140;SDS011;46330;50.822;7.126;2023-07-22T13:51:26;3.00;;;1.83;;
9140;SDS011;46330;50.822;7.126;2023-07-22T13:53:55;1.80;;;1.70;;
9140;SDS011;46330;50.822;7.126;2023-07-22T13:56:24;2.60;;;1.95;;
9140;SDS011;46330;50.822;7.126;2023-07-22T13:58:53;2.10;;;1.90;;
9140;SDS011;46330;50.822;7.126;2023-07-22T14:01:22;2.10;;;1.90;;
9140;SDS011;46330;50.822;7.126;2023-07-22T14:03:52;7.03;;;1.98;;
9140;SDS011;46330;50.822;7.126;2023-07-22T14:06:20;4.38;;;2.10;;
9140;SDS011;46330;50.822;7.126;2023-07-22T14:08:48;2.08;;;1.80;;
9140;SDS011;46330;50.822;7.126;2023-07-22T14:11:16;3.47;;;1.98;;
9140;SDS011;46330;50.822;7.126;2023-07-22T14:13:47;3.38;;;2.20;;
9140;SDS011;46330;50.822;7.126;2023-07-22T14:16:15;2.75;;;2.00;;
9140;SDS011;46330;50.822;7.126;2023-07-22T14:18:48;2.92;;;2.28;;
9140;SDS011;46330;50.822;7.126;2023-07-22T14:21:19;2.45;;;1.90;;
9140;SDS011;46330;50.822;7.126;2023-07-22T14:23:47;2.95;;;2.30;;
9140;SDS011;46330;50.822;7.126;2023-07-22T14:26:15;4.68;;;2.53;;
9140;SDS011;46330;50.822;7.126;2023-07-22T14:28:43;3.28;;;2.20;;
9140;SDS011;46330;50.822;7.126;2023-07-22T14:31:11;3.13;;;2.20;;
9140;SDS011;46330;50.822;7.126;2023-07-22T14:33:39;4.65;;;2.85;;
9140;SDS011;46330;50.822;7.126;2023-07-22T14:36:07;11.43;;;5.22;;
9140;SDS011;46330;50.822;7.126;2023-07-22T14:38:37;3.92;;;2.92;;
9140;SDS011;46330;50.822;7.126;2023-07-22T14:41:05;2.97;;;2.20;;
9140;SDS011;46330;50.822;7.126;2023-07-22T14:43:33;4.20;;;3.15;;
9140;SDS011;46330;50.822;7.126;2023-07-22T14:46:01;3.63;;;2.75;;
9140;SDS011;46330;50.822;7.126;2023-07-22T14:48:29;2.60;;;2.28;;
9140;SDS011;46330;50.822;7.126;2023-07-22T14:50:57;6.03;;;2.95;;
9140;SDS011;46330;50.822;7.126;2023-07-22T14:53:25;5.68;;;2.30;;
9140;SDS011;46330;50.822;7.126;2023-07-22T14:55:55;3.13;;;2.40;;
9140;SDS011;46330;50.822;7.126;2023-07-22T14:58:22;5.40;;;2.38;;
9140;SDS011;46330;50.822;7.126;2023-07-22T15:00:50;2.90;;;2.47;;
9140;SDS011;46330;50.822;7.126;2023-07-22T15:03:18;4.20;;;2.55;;
9140;SDS011;46330;50.822;7.126;2023-07-22T15:05:46;4.40;;;2.38;;
9140;SDS011;46330;50.822;7.126;2023-07-22T15:08:14;4.85;;;2.50;;
9140;SDS011;46330;50.822;7.126;2023-07-22T15:10:42;3.97;;;2.63;;
9140;SDS011;46330;50.822;7.126;2023-07-22T15:13:11;6.00;;;2.53;;
9140;SDS011;46330;50.822;7.126;2023-07-22T15:15:39;3.65;;;2.85;;
9140;SDS011;46330;50.822;7.126;2023-07-22T15:18:07;3.85;;;2.95;;
9140;SDS011;46330;50.822;7.126;2023-07-22T15:20:35;5.80;;;3.10;;
9140;SDS011;46330;50.822;7.126;2023-07-22T15:23:03;6.25;;;3.10;;